Monument, CO (80132)

12:11 AM MDT on April 23, 2017 (GMT -0600)
Park Trail Drive | | Change Station
Active Advisory: Frost Advisory

Elev 6935 ft 39.08 °N, 104.87 °W | Updated 9 minutes ago

Clear
Clear
39.6 °F
Feels Like 40 °F
N
1.9
Wind Variable Wind from SSE
Gusts 3.7 mph

Today
High -- | Low -- °F
--% Chance of Precip.
Yesterday
High -- | Low -- °F
Precip. -- in
Pressure 30.25 in
Visibility 10.0 miles
Clouds Clear
Windchill 40 °F
Dew Point 33 °F
Humidity 78%
Rainfall 0.08 in
Snow Depth Not available.
6:11 AM 7:44 PM
Waning Crescent, 14% visible
METAR KAFF 230558Z AUTO 16006KT 10SM CLR 03/M01 A3023 RMK AO2 SLP241 T00301006 10086 20030 58007
Pressure 30.25 in
Visibility 10.0 miles
Clouds Clear
Windchill 40 °F
Dew Point 33 °F
Humidity 78%
Rainfall 0.08 in
Snow Depth Not available.
6:11 AM 7:44 PM
Waning Crescent, 14% visible
METAR KAFF 230558Z AUTO 16006KT 10SM CLR 03/M01 A3023 RMK AO2 SLP241 T00301006 10086 20030 58007

Get Your Daily Forecast Email!

Thanks for signing up!

Be on the lookout for a verification email in your inbox.

You'll start receiving severe weather alerts in your inbox..

×

10-Day Weather Forecast

Almanac

Astronomy

Apr. 23, 2017 Rise Set
Actual Time
Civil Twilight
Nautical Twilight
Astronomical Twilight
Moon
Length of Visible Light
Length of Day
Tomorrow will be .
, % of the Moon is Illuminated

Today's Extremes

State Highs State Lows

Community

WunderPhotos

WunderBlog® & News

Nearby

Air Quality

  Air Quality AQ Index Pollutant
Not available.

Snow Depth

Station Depth Elevation

Earthquake Activity

City Distance Mag. Time & Date
Minimum magnitude displayed is 2.5.

Coastal Water Temperatures

Place Temperature

Stations

Nearby Weather Stations

Station Location Temp. Windchill Dew Point Humidity Wind Precip. Elev Updated Type
                   

Watches & Warnings

Frost Advisory
Issued: 5:42 PM MDT Apr. 22, 2017 – National Weather Service

... Frost advisory remains in effect from midnight tonight to 7 am
MDT Sunday...

* location... El Paso, Pueblo, Huerfano, Crowley, Kiowa, Prowers
and Baca counties.

* Temperature... low tonight 33 to 35, with some locations being
slightly cooler, especially in northern El Paso County.

* Impact... tender vegetation and potted plants left outdoors may
be damaged or killed.

Precautionary/preparedness actions...

A frost advisory means that widespread frost is expected.
Sensitive outdoor plants may be killed if left uncovered.